createdAt,value
2018-09-26T00:02:25.241Z,29.80
2018-09-26T00:04:53.720Z,31.43
2018-09-26T00:07:21.533Z,37.97
2018-09-26T00:09:49.326Z,31.13
2018-09-26T00:12:17.117Z,38.93
2018-09-26T00:14:44.969Z,37.17
2018-09-26T00:17:12.757Z,43.87
2018-09-26T00:19:40.578Z,45.17
2018-09-26T00:22:08.344Z,45.00
2018-09-26T00:24:38.160Z,37.73
2018-09-26T00:27:05.681Z,38.40
2018-09-26T00:29:34.471Z,37.63
2018-09-26T00:32:02.268Z,44.53
2018-09-26T00:34:31.160Z,43.60
2018-09-26T00:36:58.954Z,41.63
2018-09-26T00:39:26.835Z,51.20
2018-09-26T00:41:54.668Z,47.93
2018-09-26T00:44:22.464Z,51.23
2018-09-26T00:46:50.284Z,56.60
2018-09-26T00:49:18.079Z,59.10
2018-09-26T00:51:45.894Z,67.93
2018-09-26T00:54:13.719Z,72.63
2018-09-26T00:56:41.542Z,71.30
2018-09-26T00:59:09.338Z,72.63
2018-09-26T01:01:37.149Z,83.57
2018-09-26T01:04:04.963Z,82.30
2018-09-26T01:06:32.809Z,87.67
2018-09-26T01:09:00.632Z,80.77
2018-09-26T01:11:28.475Z,82.60
2018-09-26T01:13:56.311Z,88.67
2018-09-26T01:16:24.172Z,102.43
2018-09-26T01:18:51.989Z,98.90
2018-09-26T01:21:19.894Z,94.40
2018-09-26T01:23:47.740Z,99.80
2018-09-26T01:26:15.556Z,105.50
2018-09-26T01:28:43.369Z,107.27
2018-09-26T01:31:11.161Z,115.93
2018-09-26T01:33:38.954Z,132.00
2018-09-26T01:36:06.735Z,108.30
2018-09-26T01:38:34.546Z,114.53
2018-09-26T01:41:02.325Z,128.43
2018-09-26T01:43:30.085Z,122.17
2018-09-26T01:45:57.862Z,114.40
2018-09-26T01:48:25.673Z,108.80
2018-09-26T01:50:53.456Z,109.93
2018-09-26T01:53:21.270Z,113.50
2018-09-26T01:55:49.120Z,118.77
2018-09-26T01:58:18.894Z,117.67
2018-09-26T02:00:46.696Z,108.10
2018-09-26T02:03:14.486Z,114.03
2018-09-26T02:05:42.312Z,109.87
2018-09-26T02:08:10.158Z,122.27
2018-09-26T02:10:37.940Z,128.27
2018-09-26T02:13:06.014Z,123.20
2018-09-26T02:15:33.813Z,116.13
2018-09-26T02:18:01.594Z,124.90
2018-09-26T02:20:29.488Z,125.90
2018-09-26T02:22:57.345Z,137.47
2018-09-26T02:25:25.193Z,123.40
2018-09-26T02:27:52.969Z,128.13
2018-09-26T02:30:20.816Z,153.50
2018-09-26T02:32:48.672Z,164.53
2018-09-26T02:35:17.556Z,152.63
2018-09-26T02:37:45.357Z,150.90
2018-09-26T02:40:13.148Z,146.17
2018-09-26T02:42:40.979Z,143.37
2018-09-26T02:45:09.013Z,147.20
2018-09-26T02:47:36.817Z,158.50
2018-09-26T02:50:04.691Z,158.27
2018-09-26T02:52:34.497Z,177.73
2018-09-26T02:55:02.350Z,177.97
2018-09-26T02:57:30.177Z,184.00
2018-09-26T02:59:57.954Z,203.53
2018-09-26T03:02:26.009Z,207.17
2018-09-26T03:04:53.793Z,207.77
2018-09-26T03:07:21.596Z,207.97
2018-09-26T03:09:49.400Z,220.97
2018-09-26T03:12:17.337Z,221.63
2018-09-26T03:14:45.151Z,226.83
2018-09-26T03:17:12.992Z,217.43
2018-09-26T03:19:40.760Z,225.33
2018-09-26T03:22:08.587Z,226.57
2018-09-26T03:24:36.371Z,238.30
2018-09-26T03:27:04.164Z,213.87
2018-09-26T03:29:32.108Z,220.33
2018-09-26T03:31:59.922Z,221.70
2018-09-26T03:34:27.717Z,205.97
2018-09-26T03:36:57.548Z,232.53
2018-09-26T03:39:25.369Z,204.90
2018-09-26T03:41:53.166Z,206.47
2018-09-26T03:44:20.990Z,215.43
2018-09-26T03:46:48.781Z,238.17
2018-09-26T03:49:16.589Z,228.87
2018-09-26T03:51:44.619Z,220.80
2018-09-26T03:54:12.424Z,194.60
2018-09-26T03:56:40.330Z,167.10
2018-09-26T03:59:08.159Z,184.00
2018-09-26T04:01:36.062Z,194.67
2018-09-26T04:04:03.923Z,177.10
2018-09-26T04:06:31.721Z,142.77
2018-09-26T04:08:59.586Z,140.03
2018-09-26T04:11:27.420Z,117.30
2018-09-26T04:13:55.227Z,104.13
2018-09-26T04:16:23.036Z,91.03
2018-09-26T04:18:50.874Z,89.67
2018-09-26T04:21:18.654Z,92.53
2018-09-26T04:23:46.455Z,82.80
2018-09-26T04:26:14.390Z,68.53
2018-09-26T04:28:42.104Z,68.73
2018-09-26T04:31:09.915Z,59.17
2018-09-26T04:33:37.771Z,71.97
2018-09-26T04:36:05.669Z,58.27
2018-09-26T04:38:33.804Z,65.70
2018-09-26T04:41:01.705Z,71.07
2018-09-26T04:43:29.571Z,46.07
2018-09-26T04:45:58.416Z,49.83
2018-09-26T04:48:26.224Z,54.07
2018-09-26T04:50:55.187Z,55.77
2018-09-26T04:53:22.897Z,56.00
2018-09-26T04:55:50.826Z,49.07
2018-09-26T04:58:18.688Z,51.43
2018-09-26T05:00:46.514Z,61.43
2018-09-26T05:03:14.377Z,47.60
2018-09-26T05:05:43.245Z,51.30
2018-09-26T05:08:11.135Z,50.17
2018-09-26T05:10:39.958Z,64.77
2018-09-26T05:13:07.805Z,48.13
2018-09-26T05:15:35.650Z,51.40
2018-09-26T05:18:03.470Z,54.87
2018-09-26T05:20:31.280Z,48.67
2018-09-26T05:22:59.167Z,57.23
2018-09-26T05:25:26.953Z,46.27
2018-09-26T05:27:54.759Z,47.03
2018-09-26T05:30:22.638Z,55.30
2018-09-26T05:32:50.458Z,44.23
2018-09-26T05:35:18.349Z,44.00
2018-09-26T05:37:46.169Z,39.93
2018-09-26T05:40:14.236Z,39.87
2018-09-26T05:42:42.142Z,35.40
2018-09-26T05:45:09.998Z,35.03
2018-09-26T05:47:37.817Z,42.63
2018-09-26T05:50:05.694Z,41.00
2018-09-26T05:52:33.523Z,42.00
2018-09-26T05:55:01.403Z,31.77
2018-09-26T05:57:29.211Z,28.23
2018-09-26T05:59:57.024Z,32.93
2018-09-26T06:02:24.859Z,25.27
2018-09-26T06:04:52.681Z,23.43
2018-09-26T06:07:20.496Z,27.37
2018-09-26T06:09:48.340Z,19.27
2018-09-26T06:12:16.190Z,22.80
2018-09-26T06:14:44.012Z,22.10
2018-09-26T06:17:11.885Z,22.67
2018-09-26T06:19:39.749Z,19.97
2018-09-26T06:22:07.616Z,21.10
2018-09-26T06:24:35.484Z,19.63
2018-09-26T06:27:03.339Z,16.60
2018-09-26T06:29:31.143Z,15.60
2018-09-26T06:31:59.011Z,15.47
2018-09-26T06:34:26.813Z,8.67
2018-09-26T06:36:54.590Z,13.87
2018-09-26T06:39:22.393Z,12.70
2018-09-26T06:41:50.183Z,11.30
2018-09-26T06:44:18.009Z,13.63
2018-09-26T06:46:45.844Z,8.03
2018-09-26T06:49:13.670Z,12.50
2018-09-26T06:51:41.471Z,8.40
2018-09-26T06:54:09.367Z,7.37
2018-09-26T06:56:37.127Z,8.87
2018-09-26T06:59:04.983Z,5.43
2018-09-26T07:01:32.761Z,6.17
2018-09-26T07:04:00.627Z,3.20
2018-09-26T07:06:28.490Z,4.03
2018-09-26T07:08:56.327Z,7.00
2018-09-26T07:11:24.137Z,5.63
2018-09-26T07:13:51.960Z,6.60
2018-09-26T07:16:19.824Z,6.77
2018-09-26T07:18:47.760Z,7.47
2018-09-26T07:21:15.568Z,5.40
2018-09-26T07:23:43.436Z,7.43
2018-09-26T07:26:11.281Z,4.67
2018-09-26T07:28:39.155Z,6.20
2018-09-26T07:31:08.027Z,5.57
2018-09-26T07:33:35.886Z,3.23
2018-09-26T07:36:03.751Z,5.03
2018-09-26T07:38:31.565Z,3.53
2018-09-26T07:40:59.384Z,4.27
2018-09-26T07:43:28.207Z,5.40
2018-09-26T07:45:56.053Z,5.93
2018-09-26T07:48:23.837Z,5.60
2018-09-26T07:50:51.713Z,9.20
2018-09-26T07:53:19.526Z,6.53
2018-09-26T07:55:47.335Z,2.87
2018-09-26T07:58:15.244Z,4.10
2018-09-26T08:00:43.067Z,5.07
2018-09-26T08:03:10.895Z,6.23
2018-09-26T08:05:38.757Z,5.23
2018-09-26T08:08:06.607Z,3.27
2018-09-26T08:10:34.397Z,5.30
2018-09-26T08:13:02.237Z,4.30
2018-09-26T08:15:30.451Z,3.97
2018-09-26T08:17:58.332Z,8.03
2018-09-26T08:20:26.200Z,5.40
2018-09-26T08:22:54.019Z,2.60
2018-09-26T08:25:21.797Z,8.67
2018-09-26T08:27:49.593Z,3.93
2018-09-26T08:30:17.394Z,4.43
2018-09-26T08:32:45.199Z,6.67
2018-09-26T08:35:13.058Z,3.67
2018-09-26T08:37:40.875Z,4.20
2018-09-26T08:40:08.694Z,3.30
2018-09-26T08:42:37.478Z,5.83
2018-09-26T08:45:05.653Z,5.50
2018-09-26T08:47:33.457Z,1.97
2018-09-26T08:50:01.295Z,3.73
2018-09-26T08:52:29.087Z,8.53
2018-09-26T08:54:56.907Z,2.90
2018-09-26T08:57:24.675Z,7.53
2018-09-26T08:59:52.518Z,6.77
2018-09-26T09:02:20.361Z,4.30
2018-09-26T09:04:48.121Z,5.55
2018-09-26T09:07:15.950Z,4.42
2018-09-26T09:09:43.783Z,2.95
2018-09-26T09:12:11.623Z,5.47
2018-09-26T09:14:39.534Z,2.67
2018-09-26T09:17:07.310Z,3.67
2018-09-26T09:19:35.177Z,3.12
2018-09-26T09:22:02.993Z,2.00
2018-09-26T09:24:30.813Z,6.50
2018-09-26T09:26:59.651Z,4.42
2018-09-26T09:29:27.644Z,5.70
2018-09-26T09:31:55.483Z,2.92
2018-09-26T09:34:23.312Z,4.90
2018-09-26T09:36:51.170Z,3.80
2018-09-26T09:39:18.969Z,8.10
2018-09-26T09:41:46.818Z,4.78
2018-09-26T09:44:14.670Z,4.65
2018-09-26T09:46:42.471Z,8.43
2018-09-26T09:49:10.311Z,5.45
2018-09-26T09:51:38.169Z,2.72
2018-09-26T09:54:06.300Z,5.58
2018-09-26T09:56:34.168Z,4.35
2018-09-26T09:59:02.020Z,2.83
2018-09-26T10:01:29.844Z,3.45
2018-09-26T10:03:59.544Z,5.33
2018-09-26T10:06:28.053Z,4.70
2018-09-26T10:08:56.198Z,8.08
2018-09-26T10:11:23.918Z,5.65
2018-09-26T10:13:51.747Z,4.08
2018-09-26T10:16:19.593Z,4.45
2018-09-26T10:19:06.218Z,6.10
2018-09-26T10:22:02.750Z,3.67
2018-09-26T10:24:30.618Z,7.15
2018-09-26T10:26:58.471Z,6.10
2018-09-26T10:29:26.334Z,5.65
2018-09-26T10:31:54.170Z,2.92
2018-09-26T10:34:21.978Z,5.67
2018-09-26T10:36:49.837Z,5.90
2018-09-26T10:39:17.677Z,4.50
2018-09-26T10:41:45.529Z,10.13
2018-09-26T10:44:14.378Z,3.65
2018-09-26T10:46:42.251Z,4.50
2018-09-26T10:49:10.049Z,6.60
2018-09-26T10:51:37.863Z,4.35
2018-09-26T10:54:05.703Z,3.95
2018-09-26T10:56:33.662Z,8.38
2018-09-26T10:59:01.432Z,10.78
2018-09-26T11:01:29.253Z,5.85
2018-09-26T11:03:57.216Z,7.33
2018-09-26T11:06:25.090Z,4.67
2018-09-26T11:08:52.950Z,5.75
2018-09-26T11:11:20.822Z,6.25
2018-09-26T11:13:48.868Z,5.20
2018-09-26T11:16:16.706Z,5.12
2018-09-26T11:18:44.618Z,2.20
2018-09-26T11:21:12.474Z,6.80
2018-09-26T11:23:40.281Z,7.37
2018-09-26T11:26:08.255Z,8.05
2018-09-26T11:28:37.309Z,4.25
2018-09-26T11:31:05.178Z,6.47
2018-09-26T11:33:33.032Z,4.00
2018-09-26T11:36:01.045Z,6.45
2018-09-26T11:38:28.843Z,3.80
2018-09-26T11:40:58.472Z,4.95
2018-09-26T11:43:27.371Z,2.95
2018-09-26T11:45:55.328Z,2.98
2018-09-26T11:48:23.104Z,7.65
2018-09-26T11:50:52.111Z,5.40
2018-09-26T11:53:20.162Z,4.72
2018-09-26T11:55:48.035Z,6.37
2018-09-26T11:58:16.940Z,3.35
2018-09-26T12:00:44.730Z,4.67
2018-09-26T12:03:12.645Z,4.20
2018-09-26T12:05:40.495Z,3.02
2018-09-26T12:08:08.396Z,3.10
2018-09-26T12:10:36.272Z,5.90
2018-09-26T12:13:04.129Z,3.22
2018-09-26T12:15:31.941Z,4.30
2018-09-26T12:17:59.941Z,6.58
2018-09-26T12:20:27.729Z,2.35
2018-09-26T12:22:55.550Z,4.40
2018-09-26T12:25:23.558Z,6.33
2018-09-26T12:27:51.397Z,7.50
2018-09-26T12:30:19.476Z,4.85
2018-09-26T12:32:47.262Z,3.95
2018-09-26T12:35:15.198Z,5.08
2018-09-26T12:37:43.062Z,3.50
2018-09-26T12:40:11.080Z,4.62
2018-09-26T12:42:39.139Z,3.60
2018-09-26T12:45:08.067Z,4.25
2018-09-26T12:47:35.947Z,4.50
2018-09-26T12:50:04.636Z,4.28
2018-09-26T12:52:32.559Z,3.52
2018-09-26T12:55:00.374Z,3.92
2018-09-26T12:57:29.265Z,3.17
2018-09-26T12:59:57.196Z,4.33
2018-09-26T13:02:25.362Z,2.92
2018-09-26T13:04:53.144Z,4.72
2018-09-26T13:07:21.127Z,4.72
2018-09-26T13:09:49.075Z,5.95
2018-09-26T13:12:17.113Z,4.25
2018-09-26T13:14:44.909Z,5.03
2018-09-26T13:17:12.837Z,4.05
2018-09-26T13:19:40.677Z,4.83
2018-09-26T13:22:08.592Z,2.47
2018-09-26T13:24:36.418Z,5.67
2018-09-26T13:27:04.458Z,5.35
2018-09-26T13:29:32.297Z,2.47
2018-09-26T13:32:00.212Z,4.65
2018-09-26T13:34:28.062Z,4.40
2018-09-26T13:36:56.017Z,7.08
2018-09-26T13:39:24.384Z,5.15
2018-09-26T13:41:53.364Z,4.78
2018-09-26T13:44:21.193Z,6.40
2018-09-26T13:46:49.188Z,4.28
2018-09-26T13:49:17.048Z,2.67
2018-09-26T13:51:47.069Z,2.52
2018-09-26T13:54:15.148Z,5.25
2018-09-26T13:56:42.972Z,5.72
2018-09-26T13:59:10.999Z,5.80
2018-09-26T14:01:39.159Z,4.53
2018-09-26T14:04:07.123Z,4.05
2018-09-26T14:06:34.979Z,7.53
2018-09-26T14:09:03.726Z,2.80
2018-09-26T14:11:31.577Z,4.83
2018-09-26T14:13:59.601Z,5.05
2018-09-26T14:16:27.486Z,4.65
2018-09-26T14:18:56.576Z,6.05
2018-09-26T14:21:24.561Z,3.58
2018-09-26T14:23:52.401Z,7.72
2018-09-26T14:26:20.359Z,5.37
2018-09-26T14:28:48.254Z,9.90
2018-09-26T14:31:16.261Z,4.28
2018-09-26T14:33:44.112Z,6.15
2018-09-26T14:36:12.090Z,5.58
2018-09-26T14:38:39.975Z,5.70
2018-09-26T14:41:09.040Z,6.85
2018-09-26T14:43:36.851Z,5.80
2018-09-26T14:46:04.857Z,9.15
2018-09-26T14:48:32.704Z,8.00
2018-09-26T14:51:00.723Z,5.65
2018-09-26T14:53:28.543Z,5.70
2018-09-26T14:55:56.363Z,5.80
2018-09-26T14:58:28.265Z,8.88
2018-09-26T15:00:56.057Z,6.30
2018-09-26T15:03:24.043Z,3.77
2018-09-26T15:05:51.914Z,4.55
2018-09-26T15:08:19.784Z,9.68
2018-09-26T15:10:47.640Z,6.12
2018-09-26T15:13:15.473Z,4.37
2018-09-26T15:15:43.302Z,6.03
2018-09-26T15:18:11.151Z,8.13
2018-09-26T15:20:39.098Z,4.75
2018-09-26T15:23:06.861Z,4.30
2018-09-26T15:25:34.695Z,5.42
2018-09-26T15:28:02.868Z,8.03
2018-09-26T15:30:30.640Z,6.12
2018-09-26T15:32:58.666Z,5.33
2018-09-26T15:35:26.542Z,7.70
2018-09-26T15:37:54.357Z,15.35
2018-09-26T15:40:22.252Z,7.75
2018-09-26T15:42:51.130Z,4.83
2018-09-26T15:45:19.011Z,3.50
2018-09-26T15:47:47.235Z,6.90
2018-09-26T15:50:15.170Z,4.17
2018-09-26T15:52:43.029Z,9.40
2018-09-26T15:55:10.842Z,7.15
2018-09-26T15:57:38.776Z,5.60
2018-09-26T16:00:06.696Z,7.45
2018-09-26T16:02:34.711Z,9.33
2018-09-26T16:05:02.542Z,24.00
2018-09-26T16:07:30.433Z,10.20
2018-09-26T16:09:58.243Z,5.55
2018-09-26T16:12:26.266Z,9.18
2018-09-26T16:14:54.030Z,4.90
2018-09-26T16:17:23.343Z,10.55
2018-09-26T16:19:51.273Z,6.70
2018-09-26T16:22:19.348Z,4.42
2018-09-26T16:24:47.384Z,6.33
2018-09-26T16:27:15.270Z,5.65
2018-09-26T16:29:43.278Z,9.55
2018-09-26T16:32:11.130Z,10.98
2018-09-26T16:34:39.055Z,7.72
2018-09-26T16:37:06.893Z,5.20
2018-09-26T16:39:36.050Z,5.12
2018-09-26T16:42:03.753Z,4.30
2018-09-26T16:44:31.808Z,9.85
2018-09-26T16:46:59.613Z,8.80
2018-09-26T16:49:31.850Z,5.70
2018-09-26T16:51:59.648Z,5.30
2018-09-26T16:54:27.421Z,5.50
2018-09-26T16:56:58.499Z,10.15
2018-09-26T16:59:26.340Z,8.18
2018-09-26T17:01:54.292Z,6.70
2018-09-26T17:04:22.192Z,6.62
2018-09-26T17:06:50.223Z,8.08
2018-09-26T17:09:18.084Z,3.72
2018-09-26T17:11:46.162Z,3.65
2018-09-26T17:14:14.049Z,8.50
2018-09-26T17:16:42.989Z,5.65
2018-09-26T17:19:10.948Z,5.20
2018-09-26T17:21:38.881Z,6.60
2018-09-26T17:24:06.863Z,7.35
2018-09-26T17:26:34.655Z,6.53
2018-09-26T17:29:03.606Z,6.17
2018-09-26T17:31:31.443Z,6.25
2018-09-26T17:33:59.362Z,8.90
2018-09-26T17:36:27.204Z,10.63
2018-09-26T17:39:25.398Z,12.18
2018-09-26T17:41:53.242Z,8.20
2018-09-26T17:44:23.020Z,10.15
2018-09-26T17:46:50.901Z,7.55
2018-09-26T17:49:19.759Z,10.65
2018-09-26T17:51:47.648Z,9.68
2018-09-26T17:54:15.526Z,12.30
2018-09-26T17:56:43.354Z,6.58
2018-09-26T17:59:11.207Z,10.15
2018-09-26T18:01:39.108Z,6.20
2018-09-26T18:04:06.958Z,6.85
2018-09-26T18:06:34.736Z,21.95
2018-09-26T18:09:02.820Z,10.00
2018-09-26T18:11:30.673Z,8.60
2018-09-26T18:13:59.707Z,15.65
2018-09-26T18:16:27.721Z,9.23
2018-09-26T18:18:56.540Z,9.43
2018-09-26T18:21:24.393Z,10.47
2018-09-26T18:23:52.219Z,10.82
2018-09-26T18:26:20.146Z,45.83
2018-09-26T18:28:48.127Z,57.57
2018-09-26T18:31:16.127Z,28.47
2018-09-26T18:33:43.872Z,12.67
2018-09-26T18:36:11.704Z,17.60
2018-09-26T18:38:39.542Z,8.70
2018-09-26T18:41:07.351Z,10.93
2018-09-26T18:43:35.209Z,10.57
2018-09-26T18:46:03.077Z,8.30
2018-09-26T18:48:30.908Z,14.57
2018-09-26T18:50:59.785Z,13.47
2018-09-26T18:53:27.645Z,11.20
2018-09-26T18:55:55.491Z,11.57
2018-09-26T18:58:23.351Z,13.47
2018-09-26T19:00:51.198Z,13.90
2018-09-26T19:03:19.069Z,11.80
2018-09-26T19:05:46.932Z,10.87
2018-09-26T19:08:14.789Z,14.77
2018-09-26T19:10:42.686Z,57.20
2018-09-26T19:13:10.538Z,10.87
2018-09-26T19:15:38.338Z,15.17
2018-09-26T19:18:06.175Z,18.90
2018-09-26T19:20:33.993Z,13.27
2018-09-26T19:23:01.853Z,17.80
2018-09-26T19:25:29.661Z,18.70
2018-09-26T19:27:57.512Z,15.83
2018-09-26T19:30:25.301Z,19.13
2018-09-26T19:32:53.145Z,21.37
2018-09-26T19:35:21.008Z,18.13
2018-09-26T19:37:48.871Z,21.40
2018-09-26T19:40:16.735Z,14.43
2018-09-26T19:42:44.604Z,15.57
2018-09-26T19:45:12.556Z,19.27
2018-09-26T19:47:40.412Z,19.77
2018-09-26T19:50:08.265Z,20.47
2018-09-26T19:52:36.248Z,17.07
2018-09-26T19:55:04.047Z,19.23
2018-09-26T19:57:31.884Z,16.83
2018-09-26T19:59:59.787Z,20.30
2018-09-26T20:02:27.670Z,16.20
2018-09-26T20:04:55.586Z,13.23
2018-09-26T20:07:23.482Z,27.87
2018-09-26T20:09:52.383Z,21.57
2018-09-26T20:12:20.251Z,16.90
2018-09-26T20:14:48.070Z,19.90
2018-09-26T20:17:15.971Z,18.07
2018-09-26T20:19:43.962Z,17.00
2018-09-26T20:22:11.803Z,17.83
2018-09-26T20:24:39.723Z,15.47
2018-09-26T20:27:07.892Z,17.33
2018-09-26T20:29:35.837Z,17.17
2018-09-26T20:32:03.617Z,18.03
2018-09-26T20:34:31.877Z,18.53
2018-09-26T20:36:59.758Z,18.17
2018-09-26T20:39:27.756Z,21.03
2018-09-26T20:41:55.556Z,17.73
2018-09-26T20:44:23.411Z,22.00
2018-09-26T20:46:51.253Z,19.33
2018-09-26T20:49:19.055Z,17.47
2018-09-26T20:51:46.929Z,19.60
2018-09-26T20:54:14.720Z,18.30
2018-09-26T20:56:42.559Z,20.60
2018-09-26T20:59:10.501Z,16.67
2018-09-26T21:01:38.379Z,13.47
2018-09-26T21:04:06.321Z,14.80
2018-09-26T21:06:34.214Z,12.50
2018-09-26T21:09:02.205Z,16.63
2018-09-26T21:11:30.077Z,17.97
2018-09-26T21:13:58.949Z,17.93
2018-09-26T21:16:26.850Z,15.40
2018-09-26T21:18:55.734Z,16.60
2018-09-26T21:21:23.562Z,16.73
2018-09-26T21:23:51.500Z,17.83
2018-09-26T21:26:19.922Z,17.53
2018-09-26T21:28:47.708Z,19.60
2018-09-26T21:31:15.580Z,17.60
2018-09-26T21:33:43.424Z,20.37
2018-09-26T21:36:11.294Z,20.67
2018-09-26T21:38:39.128Z,18.77
2018-09-26T21:41:07.096Z,18.53
2018-09-26T21:43:34.905Z,18.57
2018-09-26T21:46:03.892Z,23.30
2018-09-26T21:48:31.660Z,19.10
2018-09-26T21:50:59.595Z,20.93
2018-09-26T21:53:27.700Z,23.70
2018-09-26T21:55:55.772Z,20.03
2018-09-26T21:58:24.630Z,20.00
2018-09-26T22:00:58.075Z,21.07
2018-09-26T22:03:25.956Z,29.13
2018-09-26T22:05:53.946Z,28.57
2018-09-26T22:08:21.759Z,23.17
2018-09-26T22:10:49.829Z,26.63
2018-09-26T22:13:17.736Z,23.73
2018-09-26T22:15:45.668Z,24.97
2018-09-26T22:18:13.493Z,20.40
2018-09-26T22:20:42.413Z,24.80
2018-09-26T22:23:10.205Z,22.33
2018-09-26T22:25:38.014Z,28.90
2018-09-26T22:28:05.905Z,19.53
2018-09-26T22:30:34.809Z,20.63
2018-09-26T22:33:02.642Z,21.83
2018-09-26T22:35:30.538Z,24.87
2018-09-26T22:37:58.332Z,23.10
2018-09-26T22:40:26.229Z,32.00
2018-09-26T22:42:54.072Z,30.57
2018-09-26T22:45:59.588Z,29.57
2018-09-26T22:48:27.370Z,31.77
2018-09-26T22:54:29.511Z,27.57
2018-09-26T22:56:57.370Z,33.23
2018-09-26T23:03:00.169Z,30.33
2018-09-26T23:05:28.112Z,35.50
2018-09-26T23:11:30.488Z,33.10
2018-09-26T23:14:30.883Z,28.60
2018-09-26T23:16:58.865Z,32.40
2018-09-26T23:19:40.588Z,25.77
2018-09-26T23:22:08.423Z,23.90
2018-09-26T23:24:36.283Z,26.33
2018-09-26T23:27:05.540Z,20.17
2018-09-26T23:29:33.404Z,26.30
2018-09-26T23:32:01.364Z,24.43
2018-09-26T23:34:29.192Z,25.37
2018-09-26T23:36:57.056Z,34.63
2018-09-26T23:39:24.848Z,32.20
2018-09-26T23:41:52.818Z,28.83
2018-09-26T23:44:20.660Z,25.40
2018-09-26T23:46:48.564Z,28.53
2018-09-26T23:49:16.436Z,30.30
2018-09-26T23:51:44.442Z,32.63
2018-09-26T23:54:12.773Z,29.20
2018-09-26T23:56:40.605Z,24.50
2018-09-26T23:59:09.518Z,25.63
